Time;durP1;ratioP1;P1;durP2;ratioP2;P2;SDS_P1;SDS_P2;PMS_P1;PMS_P2;Temp;Humidity;BMP_temperature;BMP_pressure;BME280_temperature;BME280_humidity;BME280_pressure;Samples;Min_cycle;Max_cycle;Signal;HPM_P1;HPM_P2
2021/10/12 00:01:47;;;;;;;51.67;44.33;;;21.70;54.00;;;;;;4757247;55;21065;-33
2021/10/12 00:06:48;;;;;;;54.80;46.65;;;21.80;54.00;;;;;;4743437;55;21002;-26
2021/10/12 00:11:49;;;;;;;50.97;44.90;;;21.80;54.00;;;;;;4749796;55;21504;-32
2021/10/12 00:16:52;;;;;;;51.00;43.60;;;21.80;54.00;;;;;;4743660;55;21062;-22
2021/10/12 00:21:52;;;;;;;49.35;43.47;;;21.70;53.90;;;;;;4748318;55;21576;-25
2021/10/12 00:26:53;;;;;;;48.33;42.50;;;21.70;53.90;;;;;;4737028;55;21022;-24
2021/10/12 00:31:54;;;;;;;50.70;43.38;;;21.70;53.80;;;;;;4737256;55;21062;-26
2021/10/12 00:36:55;;;;;;;47.92;41.15;;;21.70;53.80;;;;;;4741464;55;22265;-26
2021/10/12 00:41:56;;;;;;;47.70;41.30;;;21.70;53.80;;;;;;4739964;55;21027;-24
2021/10/12 00:46:57;;;;;;;47.65;41.80;;;21.70;53.90;;;;;;4814984;55;21074;-25
2021/10/12 00:51:57;;;;;;;47.15;40.72;;;21.70;54.40;;;;;;4744832;55;21039;-24
2021/10/12 00:57:00;;;;;;;47.53;40.83;;;21.70;53.80;;;;;;4774168;55;20998;-24
2021/10/12 01:02:02;;;;;;;45.50;39.47;;;21.70;53.90;;;;;;4762968;55;21002;-24
2021/10/12 01:07:03;;;;;;;45.50;40.50;;;21.70;53.70;;;;;;4777104;55;21002;-24
2021/10/12 01:12:04;;;;;;;44.67;39.78;;;21.70;53.80;;;;;;4737872;59;21440;-22
2021/10/12 01:17:05;;;;;;;44.17;38.75;;;21.70;53.70;;;;;;4747777;55;21105;-26
2021/10/12 01:22:06;;;;;;;45.63;40.05;;;21.70;53.80;;;;;;4767678;55;21600;-26
2021/10/12 01:27:07;;;;;;;44.90;38.58;;;21.70;53.80;;;;;;4745067;55;21014;-25
2021/10/12 01:32:08;;;;;;;41.47;36.90;;;21.70;53.70;;;;;;4741072;55;21857;-25
2021/10/12 01:37:09;;;;;;;40.45;36.05;;;21.70;53.70;;;;;;4737919;59;21508;-25
2021/10/12 01:42:10;;;;;;;40.97;36.00;;;21.70;53.70;;;;;;4792703;55;21047;-25
2021/10/12 01:47:11;;;;;;;40.42;35.83;;;21.70;53.60;;;;;;4742028;55;21129;-27
2021/10/12 01:52:13;;;;;;;42.15;36.70;;;21.70;53.60;;;;;;4737488;59;21010;-24
2021/10/12 01:57:15;;;;;;;39.78;34.97;;;21.70;53.70;;;;;;4757567;55;21030;-24
2021/10/12 02:02:16;;;;;;;39.47;34.70;;;21.70;53.60;;;;;;4745252;55;21049;-22
2021/10/12 02:07:17;;;;;;;38.75;34.55;;;21.70;53.70;;;;;;4751446;55;21085;-25
2021/10/12 02:12:18;;;;;;;38.92;34.42;;;21.70;53.70;;;;;;4741658;55;21599;-21
2021/10/12 02:17:18;;;;;;;38.97;34.63;;;21.70;54.20;;;;;;4738180;55;21033;-27
2021/10/12 02:22:20;;;;;;;38.35;33.70;;;21.70;54.30;;;;;;4752382;55;21049;-23
2021/10/12 02:27:21;;;;;;;38.10;33.67;;;21.70;53.60;;;;;;4739978;55;21883;-26
2021/10/12 02:32:22;;;;;;;36.33;32.17;;;21.70;53.60;;;;;;4796907;55;21042;-27
2021/10/12 02:37:23;;;;;;;36.90;32.88;;;21.70;53.50;;;;;;4767016;55;21038;-25
2021/10/12 02:42:24;;;;;;;37.33;32.42;;;21.70;54.20;;;;;;4742528;55;20994;-23
2021/10/12 02:47:25;;;;;;;36.22;32.30;;;21.70;53.50;;;;;;4741892;55;21062;-23
2021/10/12 02:52:25;;;;;;;35.35;31.27;;;21.70;53.50;;;;;;4737264;59;21493;-23
2021/10/12 02:57:26;;;;;;;34.38;30.67;;;21.70;53.40;;;;;;4737879;59;21002;-24
2021/10/12 03:02:27;;;;;;;36.20;31.73;;;21.70;53.50;;;;;;4743223;55;21552;-21
2021/10/12 03:07:28;;;;;;;36.42;31.23;;;21.70;53.50;;;;;;4738430;59;21512;-23
2021/10/12 03:12:29;;;;;;;35.10;31.27;;;21.70;53.50;;;;;;4769395;55;21010;-24
2021/10/12 03:17:30;;;;;;;34.05;29.87;;;21.70;53.50;;;;;;4762236;55;21470;-25
2021/10/12 03:22:30;;;;;;;32.75;29.25;;;21.70;53.50;;;;;;4757278;55;21038;-29
2021/10/12 03:27:32;;;;;;;33.03;29.42;;;21.70;53.50;;;;;;4767173;55;21174;-25
2021/10/12 03:32:34;;;;;;;32.83;28.92;;;21.70;53.40;;;;;;4737402;59;21009;-27
2021/10/12 03:37:35;;;;;;;32.35;28.87;;;21.70;53.40;;;;;;4778848;55;21070;-25
2021/10/12 03:42:36;;;;;;;33.13;29.52;;;21.70;53.40;;;;;;4738028;59;21026;-24
2021/10/12 03:47:37;;;;;;;31.42;28.02;;;21.70;53.50;;;;;;4760443;55;21070;-22
2021/10/12 03:52:38;;;;;;;33.15;29.33;;;21.70;53.50;;;;;;4744096;55;20998;-21
2021/10/12 03:57:39;;;;;;;30.62;27.35;;;21.70;54.10;;;;;;4745663;55;21050;-22
2021/10/12 04:02:40;;;;;;;31.15;27.67;;;21.70;53.50;;;;;;4762865;55;21034;-22
2021/10/12 04:07:41;;;;;;;30.15;26.95;;;21.70;53.50;;;;;;4737254;57;21014;-24
2021/10/12 04:12:42;;;;;;;30.30;27.10;;;21.70;53.50;;;;;;4756967;55;21531;-23
2021/10/12 04:17:43;;;;;;;31.37;27.52;;;21.70;53.40;;;;;;4744615;55;21085;-22
2021/10/12 04:22:44;;;;;;;30.10;26.75;;;21.70;53.50;;;;;;4745366;55;21010;-21
2021/10/12 04:27:44;;;;;;;28.23;25.33;;;21.70;53.50;;;;;;4749955;55;21081;-23
2021/10/12 04:32:45;;;;;;;30.40;27.10;;;21.70;53.60;;;;;;4763901;55;21014;-27
2021/10/12 04:37:46;;;;;;;30.05;26.83;;;21.70;53.60;;;;;;4746791;55;21562;-25
2021/10/12 04:42:47;;;;;;;27.45;24.55;;;21.70;53.60;;;;;;4738533;55;21456;-24
2021/10/12 04:47:48;;;;;;;28.45;25.35;;;21.60;53.60;;;;;;4737690;55;21033;-26
2021/10/12 04:52:49;;;;;;;29.08;25.90;;;21.60;53.50;;;;;;4780817;55;21484;-25
2021/10/12 04:57:50;;;;;;;29.52;26.30;;;21.70;53.70;;;;;;4767699;55;21742;-25
2021/10/12 05:02:51;;;;;;;28.42;25.33;;;21.60;53.50;;;;;;4748244;55;21141;-24
2021/10/12 05:07:51;;;;;;;26.67;23.85;;;21.60;53.60;;;;;;4749918;55;21070;-23
2021/10/12 05:12:53;;;;;;;27.08;24.17;;;21.60;53.50;;;;;;4785951;55;21503;-27
2021/10/12 05:17:54;;;;;;;27.30;24.30;;;21.60;53.50;;;;;;4765300;55;21069;-26
2021/10/12 05:22:55;;;;;;;27.37;24.48;;;21.60;53.50;;;;;;4745496;55;21488;-25
2021/10/12 05:27:55;;;;;;;27.48;24.35;;;21.60;53.50;;;;;;4741786;55;21045;-23
2021/10/12 05:32:56;;;;;;;26.50;23.60;;;21.60;53.50;;;;;;4740297;55;21001;-25
2021/10/12 05:37:57;;;;;;;27.08;23.60;;;21.60;53.50;;;;;;4757441;55;21021;-23
2021/10/12 05:42:58;;;;;;;27.77;24.77;;;21.60;53.60;;;;;;4737997;59;21002;-25
2021/10/12 05:48:00;;;;;;;25.60;22.73;;;21.60;53.40;;;;;;4736087;59;21041;-21
2021/10/12 05:53:19;;;;;;;26.98;24.08;;;21.60;53.50;;;;;;4737751;59;21614;-26
2021/10/12 05:58:35;;;;;;;27.55;24.55;;;21.60;53.50;;;;;;4744701;55;21523;-23
2021/10/12 06:03:36;;;;;;;27.48;24.42;;;21.60;54.00;;;;;;4748109;55;21212;-26
2021/10/12 06:08:38;;;;;;;26.95;24.08;;;21.60;53.40;;;;;;4747817;55;21552;-23
2021/10/12 06:13:41;;;;;;;26.58;23.67;;;21.60;53.40;;;;;;4737202;57;21037;-22
2021/10/12 06:18:42;;;;;;;26.27;23.48;;;21.60;53.40;;;;;;4761260;55;21161;-18
2021/10/12 06:23:44;;;;;;;26.73;23.87;;;21.60;53.40;;;;;;4775374;55;21070;-26
2021/10/12 06:28:44;;;;;;;27.90;24.80;;;21.60;53.40;;;;;;4743242;55;21058;-25
2021/10/12 06:33:45;;;;;;;28.27;24.85;;;21.60;53.30;;;;;;4749407;55;21065;-27
2021/10/12 06:38:46;;;;;;;28.23;25.00;;;21.60;53.40;;;;;;4760588;55;21090;-28
2021/10/12 06:43:47;;;;;;;28.23;25.15;;;21.60;53.30;;;;;;4765143;55;21545;-24
2021/10/12 06:48:48;;;;;;;29.58;25.48;;;21.60;53.30;;;;;;4735861;55;21042;-23
2021/10/12 06:53:49;;;;;;;28.73;24.83;;;21.60;53.40;;;;;;4742985;55;21015;-25
2021/10/12 06:58:50;;;;;;;28.00;25.00;;;21.60;53.20;;;;;;4754901;55;21453;-25
2021/10/12 07:03:51;;;;;;;29.40;25.52;;;21.60;53.30;;;;;;4745630;55;21139;-25
2021/10/12 07:08:52;;;;;;;30.45;26.15;;;21.60;53.30;;;;;;4750735;55;21021;-23
2021/10/12 07:13:52;;;;;;;28.77;25.15;;;21.60;53.20;;;;;;4742702;55;21491;-23
2021/10/12 07:18:53;;;;;;;30.42;26.27;;;21.60;53.30;;;;;;4759306;55;21046;-24
2021/10/12 07:23:54;;;;;;;35.90;28.50;;;21.70;53.40;;;;;;4737873;59;21065;-23
2021/10/12 07:28:58;;;;;;;36.22;30.33;;;21.80;53.40;;;;;;4766154;55;21167;-22
2021/10/12 07:33:58;;;;;;;36.58;30.30;;;21.90;53.50;;;;;;4749468;55;21496;-23
2021/10/12 07:38:59;;;;;;;39.50;33.40;;;21.90;53.40;;;;;;4739873;55;21074;-25
2021/10/12 07:44:01;;;;;;;45.47;34.92;;;22.00;53.40;;;;;;4737203;55;21459;-23
2021/10/12 07:49:02;;;;;;;44.92;35.38;;;22.00;53.50;;;;;;4734422;59;21018;-26
2021/10/12 07:54:08;;;;;;;41.75;36.00;;;22.10;53.80;;;;;;4743536;55;21088;-25
2021/10/12 07:59:11;;;;;;;46.42;38.22;;;22.10;53.50;;;;;;4755275;55;21098;-23
2021/10/12 08:04:12;;;;;;;49.50;37.97;;;22.10;53.50;;;;;;4745111;55;21065;-24
2021/10/12 08:09:13;;;;;;;52.17;39.50;;;22.20;53.50;;;;;;4762890;55;21570;-21
2021/10/12 08:14:17;;;;;;;49.10;39.22;;;22.20;53.60;;;;;;4751225;55;21001;-21
2021/10/12 08:19:18;;;;;;;51.88;41.35;;;22.20;54.20;;;;;;4738601;55;22375;-24
2021/10/12 08:24:20;;;;;;;50.90;39.85;;;22.20;53.70;;;;;;4741423;55;21054;-22
2021/10/12 08:29:21;;;;;;;51.70;42.42;;;22.20;53.70;;;;;;4746294;55;21579;-23
2021/10/12 08:34:22;;;;;;;56.70;43.75;;;22.20;53.80;;;;;;4750065;55;21030;-29
2021/10/12 08:39:29;;;;;;;56.03;43.05;;;22.30;54.10;;;;;;4738525;55;21058;-28
2021/10/12 08:44:31;;;;;;;55.10;45.05;;;22.30;54.30;;;;;;4735700;55;21583;-25
2021/10/12 08:49:32;;;;;;;55.53;43.60;;;22.30;54.40;;;;;;4741350;55;21080;-28
2021/10/12 08:54:33;;;;;;;55.45;43.85;;;22.40;54.70;;;;;;4737002;59;21532;-28
2021/10/12 08:59:34;;;;;;;55.85;44.33;;;22.40;54.80;;;;;;4752083;55;22147;-29
2021/10/12 09:04:44;;;;;;;60.10;46.92;;;22.40;55.00;;;;;;4743482;55;21149;-26
2021/10/12 09:09:45;;;;;;;59.30;46.25;;;22.40;55.10;;;;;;4753993;55;21464;-29
2021/10/12 09:14:59;;;;;;;61.08;47.25;;;22.40;55.30;;;;;;4737160;55;21010;-28
2021/10/12 09:21:02;;;;;;;58.17;46.20;;;22.50;55.40;;;;;;4735487;59;21117;-24
2021/10/12 09:26:16;;;;;;;61.75;48.50;;;22.50;55.60;;;;;;4741215;55;21085;-28
2021/10/12 09:31:17;;;;;;;62.50;47.00;;;22.50;55.90;;;;;;4736583;59;21018;-27
2021/10/12 09:36:30;;;;;;;58.83;47.03;;;22.60;55.90;;;;;;4739801;55;21026;-24
2021/10/12 09:41:31;;;;;;;64.93;49.67;;;22.60;56.20;;;;;;4776650;55;21340;-28
2021/10/12 09:46:33;;;;;;;64.43;50.58;;;22.50;56.00;;;;;;4761090;55;21014;-29
2021/10/12 09:51:34;;;;;;;64.93;52.42;;;22.60;56.10;;;;;;4736651;59;21540;-28
2021/10/12 09:56:35;;;;;;;72.35;58.45;;;22.60;56.20;;;;;;4750700;55;20997;-28
2021/10/12 10:01:36;;;;;;;75.97;59.65;;;22.50;56.20;;;;;;4761028;55;21218;-27
2021/10/12 10:06:40;;;;;;;84.95;64.00;;;22.60;56.00;;;;;;4739943;55;21026;-29
2021/10/12 10:11:44;;;;;;;83.80;62.35;;;22.60;56.10;;;;;;4749971;55;21125;-28
2021/10/12 10:16:49;;;;;;;81.65;64.00;;;22.60;56.10;;;;;;4737762;55;21066;-28
2021/10/12 10:21:51;;;;;;;82.70;64.78;;;22.60;56.10;;;;;;4749641;55;21492;-22
2021/10/12 10:26:51;;;;;;;84.78;67.35;;;22.50;56.20;;;;;;4737288;59;21014;-28
2021/10/12 10:31:59;;;;;;;86.32;68.53;;;22.60;56.30;;;;;;4756365;55;21069;-27
2021/10/12 10:43:59;;;;;;;89.35;70.57;;;22.60;56.30;;;;;;4748482;55;21121;-26
2021/10/12 10:49:19;;;;;;;92.78;70.55;;;22.60;56.50;;;;;;4736502;59;21555;-29
2021/10/12 11:01:08;;;;;;;93.25;71.43;;;22.60;56.60;;;;;;4745778;55;20990;-26
2021/10/12 11:06:17;;;;;;;99.13;75.47;;;22.60;56.60;;;;;;4738203;55;20995;-22
2021/10/12 11:11:17;;;;;;;96.53;77.30;;;22.60;56.70;;;;;;4736903;59;20986;-25
2021/10/12 11:16:21;;;;;;;99.70;77.65;;;22.60;56.70;;;;;;4737315;59;21469;-26
2021/10/12 11:21:22;;;;;;;98.70;78.05;;;22.60;56.80;;;;;;4749875;55;21162;-28
2021/10/12 11:26:27;;;;;;;98.35;78.15;;;22.60;56.90;;;;;;4748704;55;21461;-23
2021/10/12 11:31:29;;;;;;;95.12;77.80;;;22.60;57.50;;;;;;4770010;55;21535;-27
2021/10/12 11:36:32;;;;;;;104.82;82.32;;;22.60;56.90;;;;;;4739700;55;21083;-25
2021/10/12 11:41:40;;;;;;;102.20;79.87;;;22.60;56.90;;;;;;4769788;55;21085;-29
2021/10/12 11:46:48;;;;;;;107.85;82.03;;;22.60;56.90;;;;;;4737102;59;21113;-26
2021/10/12 11:51:50;;;;;;;101.35;80.05;;;22.60;56.90;;;;;;4749445;55;21124;-25
2021/10/12 11:56:51;;;;;;;103.40;80.45;;;22.60;56.90;;;;;;4744602;55;21468;-27
2021/10/12 12:01:55;;;;;;;102.70;84.65;;;22.60;56.80;;;;;;4737052;55;21028;-28
2021/10/12 12:06:59;;;;;;;106.87;84.82;;;22.60;56.70;;;;;;4756169;55;21568;-25
2021/10/12 12:12:01;;;;;;;101.43;83.60;;;22.60;56.70;;;;;;4756230;55;22445;-28
2021/10/12 12:17:23;;;;;;;103.50;82.72;;;22.50;56.60;;;;;;4736790;59;21046;-25
2021/10/12 12:22:26;;;;;;;105.45;80.12;;;22.60;56.60;;;;;;4747346;55;21022;-27
2021/10/12 12:27:34;;;;;;;101.45;82.30;;;22.60;56.70;;;;;;4738150;55;21567;-25
2021/10/12 12:32:38;;;;;;;102.45;81.50;;;22.60;56.70;;;;;;4746087;55;21535;-24
2021/10/12 12:37:39;;;;;;;108.03;84.82;;;22.60;56.70;;;;;;4743666;55;21484;-26
2021/10/12 12:42:40;;;;;;;105.57;83.90;;;22.60;56.70;;;;;;4748467;55;21101;-29
2021/10/12 12:48:43;;;;;;;103.70;83.10;;;22.60;56.80;;;;;;4737441;59;21046;-29
2021/10/12 12:53:47;;;;;;;102.55;80.68;;;22.60;56.80;;;;;;4749189;55;22322;-23
2021/10/12 12:58:48;;;;;;;104.82;81.40;;;22.60;56.90;;;;;;4760599;55;21002;-25
2021/10/12 13:03:52;;;;;;;100.00;81.57;;;22.60;56.90;;;;;;4755581;55;20986;-22
2021/10/12 13:08:59;;;;;;;104.70;81.12;;;22.60;56.90;;;;;;4754580;55;20986;-24
2021/10/12 13:14:00;;;;;;;106.15;82.70;;;22.60;57.00;;;;;;4740120;55;21039;-24
2021/10/12 13:19:01;;;;;;;101.72;81.55;;;22.60;57.00;;;;;;4737103;59;21030;-24
2021/10/12 13:24:04;;;;;;;104.20;83.10;;;22.60;57.00;;;;;;4764130;55;21041;-26
2021/10/12 13:29:05;;;;;;;103.00;82.25;;;22.60;57.00;;;;;;4737930;55;21033;-22
2021/10/12 13:34:06;;;;;;;99.70;81.00;;;22.60;57.00;;;;;;4738045;55;21132;-23
2021/10/12 13:39:07;;;;;;;103.85;80.38;;;22.60;57.30;;;;;;4745967;55;21488;-21
2021/10/12 13:44:09;;;;;;;105.72;81.78;;;22.60;57.00;;;;;;4737807;59;21113;-27
2021/10/12 13:49:09;;;;;;;99.00;81.07;;;22.60;56.80;;;;;;4736545;59;21054;-25
2021/10/12 13:54:11;;;;;;;101.22;79.05;;;22.60;56.70;;;;;;4743559;55;21025;-25
2021/10/12 13:59:11;;;;;;;101.87;78.37;;;22.60;56.80;;;;;;4759825;55;21053;-23
2021/10/12 14:04:12;;;;;;;101.12;80.55;;;22.60;56.70;;;;;;4746153;55;21066;-24
2021/10/12 14:09:16;;;;;;;101.68;81.18;;;22.70;56.80;;;;;;4746354;55;21013;-27
2021/10/12 14:14:19;;;;;;;98.68;80.45;;;22.60;56.80;;;;;;4760529;55;21018;-25
2021/10/12 14:19:20;;;;;;;99.22;80.65;;;22.70;56.90;;;;;;4745378;55;21354;-19
2021/10/12 14:24:21;;;;;;;102.00;82.55;;;22.70;56.90;;;;;;4736946;59;21022;-25
2021/10/12 14:29:24;;;;;;;97.15;79.50;;;22.70;57.00;;;;;;4755938;55;21466;-27
2021/10/12 14:34:25;;;;;;;95.72;80.18;;;22.70;56.90;;;;;;4744585;55;21492;-24
2021/10/12 14:39:25;;;;;;;93.95;77.28;;;22.60;56.80;;;;;;4754665;55;21090;-27
2021/10/12 14:44:28;;;;;;;98.45;81.75;;;22.70;56.90;;;;;;4774192;55;21511;-28
2021/10/12 14:49:28;;;;;;;95.00;77.72;;;22.70;56.90;;;;;;4750644;55;21642;-23
2021/10/12 14:54:29;;;;;;;91.47;77.85;;;22.60;56.90;;;;;;4737312;55;21069;-28
2021/10/12 14:59:30;;;;;;;98.28;79.68;;;22.70;57.00;;;;;;4763111;55;21121;-24
2021/10/12 15:04:32;;;;;;;97.68;81.07;;;22.70;57.00;;;;;;4758261;55;21006;-23
2021/10/12 15:09:33;;;;;;;101.55;82.45;;;22.60;57.00;;;;;;4765097;55;20998;-28
2021/10/12 15:14:34;;;;;;;95.93;79.65;;;22.60;57.00;;;;;;4764954;55;21524;-27
2021/10/12 15:19:34;;;;;;;98.85;80.32;;;22.50;57.00;;;;;;4752518;55;21078;-25
2021/10/12 15:24:36;;;;;;;94.78;78.90;;;22.50;57.00;;;;;;4768519;55;21472;-24
2021/10/12 15:29:37;;;;;;;96.05;79.90;;;22.50;56.90;;;;;;4737313;59;21034;-26
2021/10/12 15:34:38;;;;;;;97.95;81.00;;;22.40;56.80;;;;;;4753622;55;21090;-28
2021/10/12 15:39:39;;;;;;;95.62;79.78;;;22.40;56.80;;;;;;4763185;55;21497;-22
2021/10/12 15:44:41;;;;;;;94.97;75.93;;;22.40;56.80;;;;;;4736150;59;21524;-27
2021/10/12 15:49:43;;;;;;;97.10;78.18;;;22.40;56.80;;;;;;4744632;55;21503;-23
2021/10/12 15:54:44;;;;;;;99.37;81.00;;;22.30;56.80;;;;;;4755595;55;21006;-23
2021/10/12 15:59:46;;;;;;;96.90;78.62;;;22.30;56.70;;;;;;4783200;55;21507;-27
2021/10/12 16:04:47;;;;;;;97.10;79.78;;;22.30;56.70;;;;;;4747520;55;21061;-28
2021/10/12 16:09:48;;;;;;;95.45;78.72;;;22.30;56.70;;;;;;4762834;55;21010;-23
2021/10/12 16:20:25;;;;;;;98.47;79.87;;;22.20;56.60;;;;;;4735587;55;21093;-24
2021/10/12 16:25:25;;;;;;;98.18;82.53;;;22.20;56.60;;;;;;4749726;55;21026;-24
2021/10/12 16:30:26;;;;;;;95.40;79.82;;;22.20;56.60;;;;;;4785164;55;20998;-25
2021/10/12 16:35:27;;;;;;;95.75;80.47;;;22.20;56.50;;;;;;4759662;55;21010;-21
2021/10/12 16:40:28;;;;;;;97.57;80.25;;;22.20;56.50;;;;;;4745186;55;21014;-27
2021/10/12 16:45:29;;;;;;;97.07;78.95;;;22.20;56.50;;;;;;4753946;55;21058;-23
2021/10/12 16:50:30;;;;;;;97.40;79.53;;;22.20;56.50;;;;;;4745390;55;21527;-22
2021/10/12 16:55:32;;;;;;;95.38;79.07;;;22.20;56.40;;;;;;4748633;55;21057;-25
2021/10/12 17:00:33;;;;;;;100.20;83.22;;;22.20;56.40;;;;;;4740977;55;21452;-22
2021/10/12 17:05:34;;;;;;;98.85;80.72;;;22.20;56.30;;;;;;4737394;59;21029;-27
2021/10/12 17:10:35;;;;;;;97.03;80.57;;;22.10;56.30;;;;;;4754490;55;21450;-20
2021/10/12 17:15:36;;;;;;;100.78;80.78;;;22.20;56.30;;;;;;4741602;55;21016;-25
2021/10/12 17:20:37;;;;;;;102.87;84.30;;;22.20;56.30;;;;;;4743627;55;21965;-26
2021/10/12 17:25:38;;;;;;;96.50;80.72;;;22.10;56.20;;;;;;4743126;55;21544;-28
2021/10/12 17:30:39;;;;;;;99.68;82.72;;;22.10;56.30;;;;;;4759794;55;20998;-21
2021/10/12 17:35:40;;;;;;;97.93;82.25;;;22.10;56.20;;;;;;4747310;55;21610;-25
2021/10/12 17:40:41;;;;;;;98.72;80.82;;;22.10;56.20;;;;;;4737753;55;21073;-26
2021/10/12 17:45:42;;;;;;;104.03;84.07;;;22.10;56.20;;;;;;4738841;55;21516;-27
2021/10/12 17:50:55;;;;;;;103.47;84.07;;;22.10;56.20;;;;;;4743052;55;21002;-25
2021/10/12 17:55:56;;;;;;;102.68;84.45;;;22.10;56.10;;;;;;4757015;55;21025;-28
2021/10/12 18:00:57;;;;;;;105.53;85.40;;;22.10;56.10;;;;;;4760111;55;21052;-26
2021/10/12 18:06:06;;;;;;;100.25;84.65;;;22.10;56.10;;;;;;4749634;55;21097;-25
2021/10/12 18:11:22;;;;;;;101.40;82.57;;;22.10;56.10;;;;;;4745531;55;21010;-27
2021/10/12 18:16:27;;;;;;;106.10;86.10;;;22.00;56.00;;;;;;4757458;55;21058;-23
2021/10/12 18:21:31;;;;;;;104.95;85.90;;;22.10;56.10;;;;;;4741270;55;21005;-21
2021/10/12 18:26:35;;;;;;;105.18;85.10;;;22.10;56.00;;;;;;4751388;55;21499;-21
2021/10/12 18:31:36;;;;;;;104.28;86.05;;;22.10;56.10;;;;;;4746537;55;21089;-24
2021/10/12 18:36:39;;;;;;;106.30;86.15;;;22.10;56.00;;;;;;4737176;55;21037;-27
2021/10/12 18:41:41;;;;;;;104.18;87.45;;;22.10;56.00;;;;;;4750855;55;21010;-26
2021/10/12 18:46:42;;;;;;;101.87;84.80;;;22.00;55.90;;;;;;4736850;55;21571;-26
2021/10/12 18:51:43;;;;;;;104.43;85.10;;;22.00;55.90;;;;;;4776514;55;21001;-21
2021/10/12 18:56:44;;;;;;;105.22;87.45;;;22.00;55.90;;;;;;4755715;55;21006;-26
2021/10/12 19:01:45;;;;;;;106.82;86.63;;;22.00;55.80;;;;;;4737324;55;21120;-23
2021/10/12 19:06:46;;;;;;;107.43;87.65;;;22.00;55.80;;;;;;4747512;55;21061;-23
2021/10/12 19:11:47;;;;;;;105.00;87.30;;;22.00;55.80;;;;;;4748381;55;21496;-26
2021/10/12 19:16:48;;;;;;;106.90;86.32;;;22.00;55.80;;;;;;4750968;55;21006;-21
2021/10/12 19:21:49;;;;;;;107.03;89.90;;;22.00;55.80;;;;;;4743881;55;21528;-25
2021/10/12 19:26:50;;;;;;;104.25;85.28;;;22.00;55.80;;;;;;4750890;55;21013;-24
2021/10/12 19:31:51;;;;;;;107.57;88.12;;;22.00;55.80;;;;;;4749016;55;21565;-24
2021/10/12 19:36:52;;;;;;;105.18;86.50;;;22.00;55.70;;;;;;4762270;55;21132;-26
2021/10/12 19:41:53;;;;;;;106.00;86.50;;;22.00;55.70;;;;;;4775948;55;21535;-24
2021/10/12 19:46:54;;;;;;;106.68;87.90;;;22.00;55.70;;;;;;4736764;59;21082;-23
2021/10/12 19:51:55;;;;;;;104.63;84.85;;;22.00;55.70;;;;;;4760396;55;21049;-25
2021/10/12 19:56:55;;;;;;;106.65;88.43;;;22.00;55.70;;;;;;4768069;55;21074;-25
2021/10/12 20:07:19;;;;;;;104.10;86.53;;;22.00;55.60;;;;;;4738198;55;21030;-25
2021/10/12 20:12:26;;;;;;;109.07;86.12;;;22.00;55.60;;;;;;4746171;55;21002;-23
2021/10/12 20:17:27;;;;;;;;;;;22.00;55.60;;;;;;4757655;55;21129;-24
2021/10/12 20:22:28;;;;;;;105.63;86.75;;;22.00;56.30;;;;;;4743501;55;20332;-23
2021/10/12 20:27:29;;;;;;;103.03;85.03;;;22.00;55.60;;;;;;4756885;55;21062;-26
2021/10/12 20:32:33;;;;;;;104.32;85.82;;;22.00;55.60;;;;;;4751836;55;21080;-24
2021/10/12 20:37:34;;;;;;;102.43;83.43;;;22.00;55.50;;;;;;4755444;55;21360;-27
2021/10/12 20:42:35;;;;;;;103.47;84.28;;;21.90;55.50;;;;;;4752653;55;22134;-28
2021/10/12 20:47:39;;;;;;;100.90;82.82;;;22.00;55.50;;;;;;4737050;59;21129;-30
2021/10/12 20:52:40;;;;;;;104.93;83.65;;;22.00;55.50;;;;;;4738170;59;21038;-24
2021/10/12 20:57:40;;;;;;;103.65;84.30;;;22.00;55.50;;;;;;4738395;55;21066;-28
2021/10/12 21:02:41;;;;;;;101.28;83.95;;;22.00;55.50;;;;;;4738846;55;21599;-27
2021/10/12 21:07:42;;;;;;;100.47;82.68;;;21.90;55.40;;;;;;4755335;55;21010;-25
2021/10/12 21:12:44;;;;;;;102.47;82.95;;;21.90;55.40;;;;;;4737437;59;21042;-28
2021/10/12 21:17:45;;;;;;;102.87;82.80;;;21.90;55.40;;;;;;4768363;55;21524;-27
2021/10/12 21:22:46;;;;;;;100.82;82.53;;;21.90;56.00;;;;;;4774922;55;21460;-23
2021/10/12 21:27:47;;;;;;;97.90;82.30;;;21.90;55.30;;;;;;4753361;55;21022;-28
2021/10/12 21:32:48;;;;;;;99.80;80.90;;;21.90;55.20;;;;;;4746669;55;21620;-24
2021/10/12 21:37:49;;;;;;;99.85;79.15;;;21.90;55.20;;;;;;4754514;55;21030;-25
2021/10/12 21:42:50;;;;;;;101.10;78.85;;;21.90;55.20;;;;;;4737712;59;21079;-23
2021/10/12 21:47:50;;;;;;;99.68;80.28;;;21.90;55.20;;;;;;4773563;55;21085;-23
2021/10/12 21:52:51;;;;;;;96.32;78.28;;;21.90;55.20;;;;;;4737790;55;21511;-26
2021/10/12 21:57:52;;;;;;;99.45;81.75;;;21.90;55.20;;;;;;4737965;59;21022;-23
2021/10/12 22:02:56;;;;;;;98.32;78.90;;;21.90;55.20;;;;;;4737595;59;21017;-25
2021/10/12 22:07:57;;;;;;;96.47;77.03;;;21.90;55.20;;;;;;4745875;55;21101;-24
2021/10/12 22:13:00;;;;;;;95.55;78.82;;;21.90;55.10;;;;;;4738762;55;21081;-23
2021/10/12 22:18:01;;;;;;;96.82;78.55;;;21.90;55.10;;;;;;4749280;55;21062;-21
2021/10/12 22:23:02;;;;;;;94.97;76.95;;;21.90;55.00;;;;;;4748518;55;21594;-26
2021/10/12 22:28:04;;;;;;;98.80;79.25;;;21.90;55.00;;;;;;4744933;55;20994;-23
2021/10/12 22:33:04;;;;;;;94.32;77.50;;;21.90;55.10;;;;;;4742855;55;21010;-21
2021/10/12 22:38:05;;;;;;;94.28;76.45;;;21.80;54.90;;;;;;4743739;55;21039;-24
2021/10/12 22:43:06;;;;;;;95.03;76.87;;;21.90;55.00;;;;;;4745693;55;21022;-23
2021/10/12 22:48:07;;;;;;;92.32;75.05;;;21.90;54.90;;;;;;4757886;55;21074;-23
2021/10/12 22:53:08;;;;;;;91.22;74.05;;;21.90;54.90;;;;;;4737967;56;21480;-20
2021/10/12 22:58:09;;;;;;;93.57;73.82;;;21.90;54.90;;;;;;4744464;55;21009;-23
2021/10/12 23:03:10;;;;;;;96.43;75.90;;;21.90;55.60;;;;;;4745449;55;21516;-20
2021/10/12 23:08:10;;;;;;;94.03;75.78;;;21.80;54.80;;;;;;4750892;55;21037;-23
2021/10/12 23:13:11;;;;;;;89.78;73.75;;;21.80;54.80;;;;;;4756352;55;21077;-22
2021/10/12 23:18:14;;;;;;;93.47;73.68;;;21.90;54.80;;;;;;4745189;55;21449;-25
2021/10/12 23:23:15;;;;;;;91.20;72.82;;;21.80;54.70;;;;;;4746207;55;21045;-25
2021/10/12 23:28:16;;;;;;;87.68;70.87;;;21.80;54.70;;;;;;4738058;55;21587;-27
2021/10/12 23:33:17;;;;;;;87.78;71.70;;;21.80;54.70;;;;;;4764816;55;21086;-21
2021/10/12 23:38:18;;;;;;;88.20;70.50;;;21.80;54.70;;;;;;4746232;55;21544;-25
2021/10/12 23:43:18;;;;;;;88.57;72.05;;;21.80;54.70;;;;;;4759639;55;21061;-25
2021/10/12 23:48:21;;;;;;;88.20;71.12;;;21.80;54.70;;;;;;4748592;55;21505;-21
2021/10/12 23:53:21;;;;;;;88.50;70.72;;;21.80;54.60;;;;;;4738733;59;20994;-21
2021/10/12 23:58:24;;;;;;;85.75;69.87;;;21.80;54.60;;;;;;4751221;55;21488;-29
